メインページ
METAR-TAF:

METAR-TAF

空港 :

ビクトリア国際空港

ビクトリア, ブリティッシュコロンビア州, カナダ

緯度: 48-39N, 経度: 123-26W, 海抜: 20m

現時点の気象観測

当レポートは37分前の17:41(UTC)に作成
南/南東の風 16kt
気温 11°C
湿度 100%
気圧 1016 hPa
視程: 9.7km
高度600ftの雲はほとんどない
高度1400ftの雲は散在している
高度3700ftの千切れ雲あり
小雨, 靄

METAR: CYYJ 171741Z 15016KT 6SM -RA BR FEW006 SCT014 BKN037 11/11 A3000 RMK SF2SC1SC4 SLP161

時間: 10:18 (18:18 UTC)

予報

当レポートは38分前の17:40(UTC)に作成
予報は17日の 18時(UTC)から 18日の 18時(UTC)まで有効
南/南東の風 12kt、最大22ktの突風を伴う
視程: 10km
高度1500ftの雲は散在している
高度4000ftの千切れ雲あり
17日の 18時(UTC)から 17日の 20時(UTC)まで一時的に
視程: 8.0km
高度600ftの雲は散在している
高度1500ftの千切れ雲あり
小雨, 靄
17日の 18時(UTC)から 17日の 20時(UTC)まで徐々に
南西の風 10kt
17日の 2000時(UTC)から
南西の風 10kt
視程: 10km
高度3000ftの雲は散在している
18日の 0800時(UTC)から
西の風 5kt
視程: 10km
高度600ftの雲は散在している
高度1200ftの千切れ雲あり
18日の 08時(UTC)から 18日の 18時(UTC)まで一時的に
視程: 4.8km
高度600ftの千切れ雲あり
小霧雨, 靄
確率 30%
18日の 08時(UTC)から 18日の 18時(UTC)まで
視程: 0.8km
高度200ftの

TAF: CYYJ 171740Z 1718/1818 15012G22KT P6SM SCT015 BKN040 TEMPO 1718/1720 5SM -RA BR SCT006 BKN015 BECMG 1718/1720 22010KT FM172000 22010KT P6SM SCT030 FM180800 27005KT P6SM SCT006 BKN012 TEMPO 1808/1818 3SM -DZ BR BKN006 PROB30 1808/1818 1/2SM FG VV002 RMK NXT FCST BY 180000Z

4,000以上の空港の気象観測と天気予報(METAR報とTAF報)

利用可能な観測所は地図上に黄色い丸と赤い丸で示す。

丸の上にカーソルを重ねると観測所名を参照できる。

次にクリックすると気象観測と天気予報を参照できる。

マップの切り替え:黒色「×」印の緑ボタンをクリックして拡大、「-」印の緑ボタンをクリックして縮小、緑色の三角印をクリックして隣りの地図に切り替え


METAR-TAF: